KHPT/HPT METAR and TAF weather

Enter ICAO airport designator
Station Type Date Time Source
KHPT METAR 2019/10/21 04:55 UTC NOAA

KHPT 210455Z AUTO 11013G18KT 10SM -DZ OVC090 11/08 A2967 RMK AO2


Station Type Date Time Source
KHPT Decoded METAR 2019/10/21 04:55 UTC NOAA

Station name not available
Oct 21, 2019 - 12:55 AM EDT / 2019.10.21 0455 UTC
Wind: from the ESE (110 degrees) at 15 MPH (13 KT) gusting to 21 MPH (18 KT):0
Visibility: 10 mile(s):0
Sky conditions: overcast
Weather: light drizzle
Temperature: 51 F (11 C)
Dew Point: 46 F (8 C)
Relative Humidity: 81%
Pressure (altimeter): 29.67 in. Hg (1004 hPa)
ob: KHPT 210455Z AUTO 11013G18KT 10SM -DZ OVC090 11/08 A2967 RMK AO2
cycle: 5

Station Type Date Time Source
KHPT TAF UTC NOAA

Error!

Example: see airport list